Airfield :
LOGIN :

Register | Disclaimer

   EN    FR    IT 

 










Legend :    VFR   Marginal VFR   IFR   Intensive IFR   Very Intensive IFR
Visi :
Ceiling :
>= 8 km
>= 3000ft
5 to 8 km
1000 to 3000 ft
1500m to 5 km
500 to 1000 ft
800 to 1500m
200 to 500 ft
< 800m
< 200 ft
Symbols :   Thunderstorms  Fog  Heavy snow  Heavy precipitations  Wind > 20 kt
SIGMETs :     Misc.  Thunderstorms  Icing  Turbulence  Mountain Waves  Volcanic Ashes






- Airport Elevation : 1768 ft


LEHC - Huesca Pirineos

CURRENT METAR :
  • 170500Z AUTO 09008KT CAVOK 15/12 Q1013

EXPIRED METARs :
  • 170430Z AUTO 10010KT 080V140 CAVOK 16/12 Q1013
  • 170400Z AUTO 12009KT 080V160 CAVOK 16/12 Q1013
  • 170330Z AUTO 13008KT 100V170 CAVOK 16/12 Q1013
  • 170300Z AUTO 12008KT 080V150 CAVOK 16/12 Q1013
  • 170230Z AUTO 11008KT 080V150 CAVOK 16/12 Q1013
  • 170200Z AUTO 10007KT CAVOK 16/12 Q1013
  • 170130Z AUTO 09008KT CAVOK 17/12 Q1013
  • 170100Z AUTO 09008KT CAVOK 17/12 Q1013
  • 170030Z AUTO 09008KT CAVOK 17/12 Q1013
  • 170000Z AUTO 09009KT CAVOK 18/12 Q1014

TAF TAF LEHC
Valid from the 17 at 03:00 until the 18 at 03:00 UTC


170200Z 1703/1803 11010KT 9999 FEW020 TX29/1714Z TN14/1705Z
TEMPO 1716/1722 11015G25KT



MET'MAP, your aeronautical weather chart ! - Copyright ORBIFLY December 2007 - Disclaimer

ORBIFLY MET'MAP TEAM :

Programming & Development : Alexandra Zaïnal
Original concept : Baudouin d'Aumeries
Technical & hardware support : Manuel Goepfert
Assistance : Marc-Olivier Méhu




SOURCES & CREDITS :

   NOAA